Jenkins, Kentucky
Current Conditions -  °F | °C
As of 4:55 PM on Thursday 27 Nov 2014 (Local Time) from KLNP Reporting Station
Haze Haze  
Wind Chill: 20°   Ceiling: 900
Heat Index: 28°   Visibility: 5mi
Dew Point: 27°   Wind: 9mph
Humidity: 93%   Direction: 300°WNW
Pressure: 30.22"   Gusts: 18mph
Location:  37.17°N, 82.63°W
Report Text: KLNP 272155Z AUTO 30008G16KT 5SM BR OVC009 M02/M03 A3022 RMK AO2
Loading
Personal Weather Stations






























Interactive Weather Map New forecast layout! Learn more

10-Day Weather Forecast

Advertisements
Track Severe Weather on mobile